sensor_id;sensor_type;location;lat;lon;timestamp;P1;durP1;ratioP1;P2;durP2;ratioP2
21601;SDS011;10963;50.934;4.668;2022-08-19T00:01:53;14.07;;;12.10;;
21601;SDS011;10963;50.934;4.668;2022-08-19T00:04:21;13.63;;;12.23;;
21601;SDS011;10963;50.934;4.668;2022-08-19T00:06:49;13.67;;;12.17;;
21601;SDS011;10963;50.934;4.668;2022-08-19T00:09:18;21.67;;;12.43;;
21601;SDS011;10963;50.934;4.668;2022-08-19T00:11:49;15.57;;;12.27;;
21601;SDS011;10963;50.934;4.668;2022-08-19T00:14:20;16.70;;;13.63;;
21601;SDS011;10963;50.934;4.668;2022-08-19T00:16:52;15.47;;;13.73;;
21601;SDS011;10963;50.934;4.668;2022-08-19T00:19:19;15.80;;;12.67;;
21601;SDS011;10963;50.934;4.668;2022-08-19T00:21:48;18.50;;;13.90;;
21601;SDS011;10963;50.934;4.668;2022-08-19T00:24:14;19.57;;;13.77;;
21601;SDS011;10963;50.934;4.668;2022-08-19T00:26:41;18.73;;;13.90;;
21601;SDS011;10963;50.934;4.668;2022-08-19T00:29:09;16.07;;;14.03;;
21601;SDS011;10963;50.934;4.668;2022-08-19T00:31:38;17.50;;;14.40;;
21601;SDS011;10963;50.934;4.668;2022-08-19T00:34:08;16.40;;;13.10;;
21601;SDS011;10963;50.934;4.668;2022-08-19T00:36:34;18.60;;;14.10;;
21601;SDS011;10963;50.934;4.668;2022-08-19T00:39:02;19.17;;;14.93;;
21601;SDS011;10963;50.934;4.668;2022-08-19T00:41:31;21.17;;;15.53;;
21601;SDS011;10963;50.934;4.668;2022-08-19T00:46:38;21.57;;;14.87;;
21601;SDS011;10963;50.934;4.668;2022-08-19T00:49:22;22.50;;;16.30;;
21601;SDS011;10963;50.934;4.668;2022-08-19T00:52:19;22.10;;;17.17;;
21601;SDS011;10963;50.934;4.668;2022-08-19T00:54:58;27.13;;;18.33;;
21601;SDS011;10963;50.934;4.668;2022-08-19T00:57:34;29.80;;;19.27;;
21601;SDS011;10963;50.934;4.668;2022-08-19T01:00:04;35.03;;;21.07;;
21601;SDS011;10963;50.934;4.668;2022-08-19T01:02:34;34.97;;;22.67;;
21601;SDS011;10963;50.934;4.668;2022-08-19T01:05:03;35.93;;;23.77;;
21601;SDS011;10963;50.934;4.668;2022-08-19T01:07:35;37.63;;;22.47;;
21601;SDS011;10963;50.934;4.668;2022-08-19T01:10:04;44.17;;;26.10;;
21601;SDS011;10963;50.934;4.668;2022-08-19T01:12:35;46.37;;;26.33;;
21601;SDS011;10963;50.934;4.668;2022-08-19T01:15:02;40.37;;;25.93;;
21601;SDS011;10963;50.934;4.668;2022-08-19T01:17:29;45.23;;;25.83;;
21601;SDS011;10963;50.934;4.668;2022-08-19T01:19:55;43.83;;;26.87;;
21601;SDS011;10963;50.934;4.668;2022-08-19T01:24:48;44.10;;;27.50;;
21601;SDS011;10963;50.934;4.668;2022-08-19T01:27:15;43.77;;;26.97;;
21601;SDS011;10963;50.934;4.668;2022-08-19T01:29:42;47.33;;;28.03;;
21601;SDS011;10963;50.934;4.668;2022-08-19T01:32:14;47.50;;;27.37;;
21601;SDS011;10963;50.934;4.668;2022-08-19T01:34:44;48.13;;;28.20;;
21601;SDS011;10963;50.934;4.668;2022-08-19T01:37:12;50.03;;;28.33;;
21601;SDS011;10963;50.934;4.668;2022-08-19T01:39:42;48.53;;;29.27;;
21601;SDS011;10963;50.934;4.668;2022-08-19T01:42:10;45.37;;;28.50;;
21601;SDS011;10963;50.934;4.668;2022-08-19T01:44:38;51.13;;;30.37;;
21601;SDS011;10963;50.934;4.668;2022-08-19T01:47:09;56.60;;;31.10;;
21601;SDS011;10963;50.934;4.668;2022-08-19T01:49:39;58.20;;;31.53;;
21601;SDS011;10963;50.934;4.668;2022-08-19T01:52:07;50.97;;;29.83;;
21601;SDS011;10963;50.934;4.668;2022-08-19T01:54:35;54.13;;;31.20;;
21601;SDS011;10963;50.934;4.668;2022-08-19T01:57:06;49.03;;;29.13;;
21601;SDS011;10963;50.934;4.668;2022-08-19T01:59:36;45.97;;;28.33;;
21601;SDS011;10963;50.934;4.668;2022-08-19T02:02:04;50.53;;;28.67;;
21601;SDS011;10963;50.934;4.668;2022-08-19T02:04:36;47.27;;;29.60;;
21601;SDS011;10963;50.934;4.668;2022-08-19T02:07:05;54.17;;;29.93;;
21601;SDS011;10963;50.934;4.668;2022-08-19T02:09:33;48.30;;;29.40;;
21601;SDS011;10963;50.934;4.668;2022-08-19T02:11:59;51.90;;;32.07;;
21601;SDS011;10963;50.934;4.668;2022-08-19T02:14:29;56.27;;;31.83;;
21601;SDS011;10963;50.934;4.668;2022-08-19T02:16:55;63.17;;;33.83;;
21601;SDS011;10963;50.934;4.668;2022-08-19T02:19:20;65.40;;;32.80;;
21601;SDS011;10963;50.934;4.668;2022-08-19T02:21:46;57.30;;;33.57;;
21601;SDS011;10963;50.934;4.668;2022-08-19T02:24:14;64.80;;;34.67;;
21601;SDS011;10963;50.934;4.668;2022-08-19T02:26:45;66.10;;;35.77;;
21601;SDS011;10963;50.934;4.668;2022-08-19T02:29:10;68.17;;;35.17;;
21601;SDS011;10963;50.934;4.668;2022-08-19T02:31:36;66.63;;;36.90;;
21601;SDS011;10963;50.934;4.668;2022-08-19T02:34:03;67.37;;;35.90;;
21601;SDS011;10963;50.934;4.668;2022-08-19T02:36:31;64.60;;;35.67;;
21601;SDS011;10963;50.934;4.668;2022-08-19T02:38:59;56.87;;;32.73;;
21601;SDS011;10963;50.934;4.668;2022-08-19T02:41:26;58.23;;;32.57;;
21601;SDS011;10963;50.934;4.668;2022-08-19T02:43:57;65.77;;;33.80;;
21601;SDS011;10963;50.934;4.668;2022-08-19T02:46:26;56.03;;;31.97;;
21601;SDS011;10963;50.934;4.668;2022-08-19T02:48:57;57.77;;;32.50;;
21601;SDS011;10963;50.934;4.668;2022-08-19T02:51:31;56.30;;;30.53;;
21601;SDS011;10963;50.934;4.668;2022-08-19T02:54:02;54.27;;;30.80;;
21601;SDS011;10963;50.934;4.668;2022-08-19T02:56:30;57.77;;;32.33;;
21601;SDS011;10963;50.934;4.668;2022-08-19T02:59:02;53.73;;;29.70;;
21601;SDS011;10963;50.934;4.668;2022-08-19T03:01:32;48.97;;;28.93;;
21601;SDS011;10963;50.934;4.668;2022-08-19T03:04:02;52.67;;;28.67;;
21601;SDS011;10963;50.934;4.668;2022-08-19T03:06:30;57.23;;;28.77;;
21601;SDS011;10963;50.934;4.668;2022-08-19T03:08:57;50.57;;;27.80;;
21601;SDS011;10963;50.934;4.668;2022-08-19T03:11:28;51.60;;;27.77;;
21601;SDS011;10963;50.934;4.668;2022-08-19T03:13:57;49.73;;;27.07;;
21601;SDS011;10963;50.934;4.668;2022-08-19T03:16:24;51.63;;;28.40;;
21601;SDS011;10963;50.934;4.668;2022-08-19T03:18:55;52.20;;;30.33;;
21601;SDS011;10963;50.934;4.668;2022-08-19T03:21:24;55.23;;;30.97;;
21601;SDS011;10963;50.934;4.668;2022-08-19T03:23:54;59.23;;;31.50;;
21601;SDS011;10963;50.934;4.668;2022-08-19T03:26:24;60.67;;;33.13;;
21601;SDS011;10963;50.934;4.668;2022-08-19T03:28:50;61.37;;;32.43;;
21601;SDS011;10963;50.934;4.668;2022-08-19T03:31:20;54.10;;;30.07;;
21601;SDS011;10963;50.934;4.668;2022-08-19T03:33:50;55.27;;;29.27;;
21601;SDS011;10963;50.934;4.668;2022-08-19T03:36:20;51.73;;;31.07;;
21601;SDS011;10963;50.934;4.668;2022-08-19T03:38:57;51.53;;;28.80;;
21601;SDS011;10963;50.934;4.668;2022-08-19T03:41:28;52.20;;;29.30;;
21601;SDS011;10963;50.934;4.668;2022-08-19T03:43:57;52.17;;;28.77;;
21601;SDS011;10963;50.934;4.668;2022-08-19T03:46:27;50.87;;;27.70;;
21601;SDS011;10963;50.934;4.668;2022-08-19T03:48:55;49.40;;;27.37;;
21601;SDS011;10963;50.934;4.668;2022-08-19T03:51:23;47.73;;;27.50;;
21601;SDS011;10963;50.934;4.668;2022-08-19T03:53:57;48.03;;;27.23;;
21601;SDS011;10963;50.934;4.668;2022-08-19T03:56:27;53.30;;;27.83;;
21601;SDS011;10963;50.934;4.668;2022-08-19T03:58:54;56.13;;;30.03;;
21601;SDS011;10963;50.934;4.668;2022-08-19T04:01:23;53.70;;;29.93;;
21601;SDS011;10963;50.934;4.668;2022-08-19T04:03:59;54.73;;;28.87;;
21601;SDS011;10963;50.934;4.668;2022-08-19T04:06:27;49.63;;;27.97;;
21601;SDS011;10963;50.934;4.668;2022-08-19T04:08:56;47.77;;;27.00;;
21601;SDS011;10963;50.934;4.668;2022-08-19T04:11:27;48.70;;;27.63;;
21601;SDS011;10963;50.934;4.668;2022-08-19T04:13:58;52.77;;;29.10;;
21601;SDS011;10963;50.934;4.668;2022-08-19T04:16:27;57.13;;;30.73;;
21601;SDS011;10963;50.934;4.668;2022-08-19T04:18:55;52.07;;;29.30;;
21601;SDS011;10963;50.934;4.668;2022-08-19T04:21:29;54.57;;;28.53;;
21601;SDS011;10963;50.934;4.668;2022-08-19T04:23:58;49.00;;;27.90;;
21601;SDS011;10963;50.934;4.668;2022-08-19T04:26:27;56.40;;;28.03;;
21601;SDS011;10963;50.934;4.668;2022-08-19T04:28:57;47.00;;;26.87;;
21601;SDS011;10963;50.934;4.668;2022-08-19T04:31:25;47.67;;;27.00;;
21601;SDS011;10963;50.934;4.668;2022-08-19T04:33:53;48.40;;;27.53;;
21601;SDS011;10963;50.934;4.668;2022-08-19T04:36:23;47.13;;;26.97;;
21601;SDS011;10963;50.934;4.668;2022-08-19T04:38:57;47.17;;;25.73;;
21601;SDS011;10963;50.934;4.668;2022-08-19T04:41:24;45.10;;;25.40;;
21601;SDS011;10963;50.934;4.668;2022-08-19T04:44:12;41.30;;;24.60;;
21601;SDS011;10963;50.934;4.668;2022-08-19T04:46:38;46.00;;;26.23;;
21601;SDS011;10963;50.934;4.668;2022-08-19T04:49:07;43.97;;;23.83;;
21601;SDS011;10963;50.934;4.668;2022-08-19T04:51:40;40.20;;;22.97;;
21601;SDS011;10963;50.934;4.668;2022-08-19T04:54:12;40.07;;;23.23;;
21601;SDS011;10963;50.934;4.668;2022-08-19T04:56:38;43.07;;;23.10;;
21601;SDS011;10963;50.934;4.668;2022-08-19T04:59:08;37.27;;;22.73;;
21601;SDS011;10963;50.934;4.668;2022-08-19T05:01:37;43.10;;;21.90;;
21601;SDS011;10963;50.934;4.668;2022-08-19T05:04:08;35.10;;;20.60;;
21601;SDS011;10963;50.934;4.668;2022-08-19T05:06:38;35.33;;;20.97;;
21601;SDS011;10963;50.934;4.668;2022-08-19T05:09:05;43.63;;;20.57;;
21601;SDS011;10963;50.934;4.668;2022-08-19T05:11:33;35.53;;;20.57;;
21601;SDS011;10963;50.934;4.668;2022-08-19T05:14:04;36.80;;;19.30;;
21601;SDS011;10963;50.934;4.668;2022-08-19T05:16:31;34.67;;;19.67;;
21601;SDS011;10963;50.934;4.668;2022-08-19T05:18:59;39.30;;;19.30;;
21601;SDS011;10963;50.934;4.668;2022-08-19T05:21:46;34.93;;;18.47;;
21601;SDS011;10963;50.934;4.668;2022-08-19T05:24:32;34.97;;;18.30;;
21601;SDS011;10963;50.934;4.668;2022-08-19T05:27:03;29.57;;;18.00;;
21601;SDS011;10963;50.934;4.668;2022-08-19T05:29:30;32.50;;;17.73;;
21601;SDS011;10963;50.934;4.668;2022-08-19T05:31:59;33.17;;;18.40;;
21601;SDS011;10963;50.934;4.668;2022-08-19T05:34:26;29.20;;;16.57;;
21601;SDS011;10963;50.934;4.668;2022-08-19T05:36:53;29.70;;;16.73;;
21601;SDS011;10963;50.934;4.668;2022-08-19T05:39:25;35.43;;;16.80;;
21601;SDS011;10963;50.934;4.668;2022-08-19T05:41:56;33.37;;;16.67;;
21601;SDS011;10963;50.934;4.668;2022-08-19T05:44:29;28.83;;;15.77;;
21601;SDS011;10963;50.934;4.668;2022-08-19T05:47:00;29.20;;;20.25;;
21601;SDS011;10963;50.934;4.668;2022-08-19T05:49:33;28.47;;;18.03;;
21601;SDS011;10963;50.934;4.668;2022-08-19T05:52:03;32.57;;;17.20;;
21601;SDS011;10963;50.934;4.668;2022-08-19T05:54:32;30.80;;;16.33;;
21601;SDS011;10963;50.934;4.668;2022-08-19T05:57:02;27.60;;;15.97;;
21601;SDS011;10963;50.934;4.668;2022-08-19T05:59:28;27.63;;;16.03;;
21601;SDS011;10963;50.934;4.668;2022-08-19T06:01:56;29.70;;;14.47;;
21601;SDS011;10963;50.934;4.668;2022-08-19T06:04:24;23.77;;;14.53;;
21601;SDS011;10963;50.934;4.668;2022-08-19T06:06:51;30.37;;;15.27;;
21601;SDS011;10963;50.934;4.668;2022-08-19T06:09:18;24.90;;;15.00;;
21601;SDS011;10963;50.934;4.668;2022-08-19T06:11:49;24.13;;;14.83;;
21601;SDS011;10963;50.934;4.668;2022-08-19T06:14:21;23.97;;;13.97;;
21601;SDS011;10963;50.934;4.668;2022-08-19T06:16:49;27.43;;;15.00;;
21601;SDS011;10963;50.934;4.668;2022-08-19T06:19:20;29.30;;;16.25;;
21601;SDS011;10963;50.934;4.668;2022-08-19T06:21:49;24.27;;;14.30;;
21601;SDS011;10963;50.934;4.668;2022-08-19T06:24:17;25.13;;;12.60;;
21601;SDS011;10963;50.934;4.668;2022-08-19T06:26:49;25.83;;;14.40;;
21601;SDS011;10963;50.934;4.668;2022-08-19T06:29:22;25.63;;;12.87;;
21601;SDS011;10963;50.934;4.668;2022-08-19T06:31:50;22.20;;;12.80;;
21601;SDS011;10963;50.934;4.668;2022-08-19T06:34:18;21.83;;;12.57;;
21601;SDS011;10963;50.934;4.668;2022-08-19T06:36:47;25.87;;;13.27;;
21601;SDS011;10963;50.934;4.668;2022-08-19T06:39:16;23.40;;;12.63;;
21601;SDS011;10963;50.934;4.668;2022-08-19T06:41:45;19.97;;;12.63;;
21601;SDS011;10963;50.934;4.668;2022-08-19T06:44:12;19.80;;;12.60;;
21601;SDS011;10963;50.934;4.668;2022-08-19T06:46:40;25.07;;;12.73;;
21601;SDS011;10963;50.934;4.668;2022-08-19T06:49:09;18.50;;;11.20;;
21601;SDS011;10963;50.934;4.668;2022-08-19T06:51:38;21.30;;;11.80;;
21601;SDS011;10963;50.934;4.668;2022-08-19T06:54:18;18.00;;;11.13;;
21601;SDS011;10963;50.934;4.668;2022-08-19T06:56:46;24.00;;;11.30;;
21601;SDS011;10963;50.934;4.668;2022-08-19T06:59:17;18.17;;;11.17;;
21601;SDS011;10963;50.934;4.668;2022-08-19T07:01:48;18.93;;;10.50;;
21601;SDS011;10963;50.934;4.668;2022-08-19T07:04:18;19.43;;;11.33;;
21601;SDS011;10963;50.934;4.668;2022-08-19T07:06:46;23.03;;;11.80;;
21601;SDS011;10963;50.934;4.668;2022-08-19T07:09:18;20.60;;;10.70;;
21601;SDS011;10963;50.934;4.668;2022-08-19T07:11:49;20.50;;;10.93;;
21601;SDS011;10963;50.934;4.668;2022-08-19T07:14:19;17.67;;;9.97;;
21601;SDS011;10963;50.934;4.668;2022-08-19T07:16:47;18.53;;;9.33;;
21601;SDS011;10963;50.934;4.668;2022-08-19T07:19:19;17.43;;;9.30;;
21601;SDS011;10963;50.934;4.668;2022-08-19T07:21:46;13.20;;;8.93;;
21601;SDS011;10963;50.934;4.668;2022-08-19T07:24:38;15.60;;;8.57;;
21601;SDS011;10963;50.934;4.668;2022-08-19T07:27:08;12.93;;;8.90;;
21601;SDS011;10963;50.934;4.668;2022-08-19T07:29:40;17.00;;;8.57;;
21601;SDS011;10963;50.934;4.668;2022-08-19T07:32:07;15.43;;;8.80;;
21601;SDS011;10963;50.934;4.668;2022-08-19T07:34:34;13.13;;;7.50;;
21601;SDS011;10963;50.934;4.668;2022-08-19T07:37:06;11.65;;;7.05;;
21601;SDS011;10963;50.934;4.668;2022-08-19T07:39:35;12.13;;;7.53;;
21601;SDS011;10963;50.934;4.668;2022-08-19T07:42:04;16.50;;;7.38;;
21601;SDS011;10963;50.934;4.668;2022-08-19T07:44:35;12.18;;;6.32;;
21601;SDS011;10963;50.934;4.668;2022-08-19T07:47:05;15.43;;;6.70;;
21601;SDS011;10963;50.934;4.668;2022-08-19T07:49:31;12.10;;;6.63;;
21601;SDS011;10963;50.934;4.668;2022-08-19T07:52:03;13.30;;;6.67;;
21601;SDS011;10963;50.934;4.668;2022-08-19T07:54:32;8.83;;;5.90;;
21601;SDS011;10963;50.934;4.668;2022-08-19T07:57:01;12.40;;;5.97;;
21601;SDS011;10963;50.934;4.668;2022-08-19T07:59:30;10.03;;;6.60;;
21601;SDS011;10963;50.934;4.668;2022-08-19T08:01:57;8.50;;;5.17;;
21601;SDS011;10963;50.934;4.668;2022-08-19T08:04:26;12.17;;;5.67;;
21601;SDS011;10963;50.934;4.668;2022-08-19T08:07:11;8.93;;;4.60;;
21601;SDS011;10963;50.934;4.668;2022-08-19T08:09:55;6.47;;;5.37;;
21601;SDS011;10963;50.934;4.668;2022-08-19T08:12:23;7.60;;;5.27;;
21601;SDS011;10963;50.934;4.668;2022-08-19T08:14:56;10.40;;;5.87;;
21601;SDS011;10963;50.934;4.668;2022-08-19T08:17:25;8.15;;;5.47;;
21601;SDS011;10963;50.934;4.668;2022-08-19T08:19:52;9.13;;;5.60;;
21601;SDS011;10963;50.934;4.668;2022-08-19T08:22:19;9.23;;;5.93;;
21601;SDS011;10963;50.934;4.668;2022-08-19T08:25:07;8.70;;;5.65;;
21601;SDS011;10963;50.934;4.668;2022-08-19T08:27:38;7.03;;;5.15;;
21601;SDS011;10963;50.934;4.668;2022-08-19T08:30:11;7.82;;;5.40;;
21601;SDS011;10963;50.934;4.668;2022-08-19T08:32:44;11.77;;;5.80;;
21601;SDS011;10963;50.934;4.668;2022-08-19T08:35:13;8.55;;;5.40;;
21601;SDS011;10963;50.934;4.668;2022-08-19T08:37:41;11.68;;;5.68;;
21601;SDS011;10963;50.934;4.668;2022-08-19T08:40:20;10.60;;;5.15;;
21601;SDS011;10963;50.934;4.668;2022-08-19T08:45:38;8.32;;;5.28;;
21601;SDS011;10963;50.934;4.668;2022-08-19T08:48:18;10.15;;;5.45;;
21601;SDS011;10963;50.934;4.668;2022-08-19T08:51:02;9.07;;;5.30;;
21601;SDS011;10963;50.934;4.668;2022-08-19T08:53:35;9.80;;;6.35;;
21601;SDS011;10963;50.934;4.668;2022-08-19T08:56:04;7.60;;;5.43;;
21601;SDS011;10963;50.934;4.668;2022-08-19T08:58:46;6.45;;;4.70;;
21601;SDS011;10963;50.934;4.668;2022-08-19T09:01:23;10.35;;;6.45;;
21601;SDS011;10963;50.934;4.668;2022-08-19T09:03:49;7.60;;;4.85;;
21601;SDS011;10963;50.934;4.668;2022-08-19T09:06:21;10.00;;;4.53;;
21601;SDS011;10963;50.934;4.668;2022-08-19T09:16:51;7.53;;;4.53;;
21601;SDS011;10963;50.934;4.668;2022-08-19T09:19:17;8.63;;;4.50;;
21601;SDS011;10963;50.934;4.668;2022-08-19T09:21:47;11.85;;;5.68;;
21601;SDS011;10963;50.934;4.668;2022-08-19T09:24:15;10.57;;;6.72;;
21601;SDS011;10963;50.934;4.668;2022-08-19T09:26:41;8.93;;;5.40;;
21601;SDS011;10963;50.934;4.668;2022-08-19T09:29:09;11.40;;;5.53;;
21601;SDS011;10963;50.934;4.668;2022-08-19T09:31:35;12.25;;;7.95;;
21601;SDS011;10963;50.934;4.668;2022-08-19T09:34:01;7.40;;;6.45;;
21601;SDS011;10963;50.934;4.668;2022-08-19T09:36:32;9.65;;;5.63;;
21601;SDS011;10963;50.934;4.668;2022-08-19T09:39:02;6.93;;;6.22;;
21601;SDS011;10963;50.934;4.668;2022-08-19T09:41:33;11.30;;;6.85;;
21601;SDS011;10963;50.934;4.668;2022-08-19T09:44:01;8.82;;;5.07;;
21601;SDS011;10963;50.934;4.668;2022-08-19T09:46:29;7.43;;;5.05;;
21601;SDS011;10963;50.934;4.668;2022-08-19T09:48:59;8.02;;;5.10;;
21601;SDS011;10963;50.934;4.668;2022-08-19T09:51:28;8.95;;;6.60;;
21601;SDS011;10963;50.934;4.668;2022-08-19T09:53:58;7.72;;;5.22;;
21601;SDS011;10963;50.934;4.668;2022-08-19T09:56:28;10.60;;;5.30;;
21601;SDS011;10963;50.934;4.668;2022-08-19T09:58:58;9.82;;;5.55;;
21601;SDS011;10963;50.934;4.668;2022-08-19T10:01:25;8.38;;;5.40;;
21601;SDS011;10963;50.934;4.668;2022-08-19T10:03:53;10.75;;;7.13;;
21601;SDS011;10963;50.934;4.668;2022-08-19T10:06:25;11.18;;;6.85;;
21601;SDS011;10963;50.934;4.668;2022-08-19T10:08:55;8.13;;;5.10;;
21601;SDS011;10963;50.934;4.668;2022-08-19T10:11:21;9.27;;;5.20;;
21601;SDS011;10963;50.934;4.668;2022-08-19T10:13:52;10.48;;;5.53;;
21601;SDS011;10963;50.934;4.668;2022-08-19T10:16:21;9.38;;;4.63;;
21601;SDS011;10963;50.934;4.668;2022-08-19T10:18:52;8.55;;;5.25;;
21601;SDS011;10963;50.934;4.668;2022-08-19T10:21:22;6.57;;;4.78;;
21601;SDS011;10963;50.934;4.668;2022-08-19T10:23:57;11.02;;;5.25;;
21601;SDS011;10963;50.934;4.668;2022-08-19T10:26:29;8.93;;;6.25;;
21601;SDS011;10963;50.934;4.668;2022-08-19T10:29:03;6.80;;;5.05;;
21601;SDS011;10963;50.934;4.668;2022-08-19T10:31:30;7.80;;;5.40;;
21601;SDS011;10963;50.934;4.668;2022-08-19T10:34:02;8.02;;;4.55;;
21601;SDS011;10963;50.934;4.668;2022-08-19T10:36:31;10.00;;;6.20;;
21601;SDS011;10963;50.934;4.668;2022-08-19T10:39:03;9.10;;;5.07;;
21601;SDS011;10963;50.934;4.668;2022-08-19T10:41:37;7.35;;;5.18;;
21601;SDS011;10963;50.934;4.668;2022-08-19T10:44:07;11.38;;;8.90;;
21601;SDS011;10963;50.934;4.668;2022-08-19T10:46:39;12.27;;;6.90;;
21601;SDS011;10963;50.934;4.668;2022-08-19T10:49:10;15.00;;;12.18;;
21601;SDS011;10963;50.934;4.668;2022-08-19T10:51:39;13.27;;;5.45;;
21601;SDS011;10963;50.934;4.668;2022-08-19T10:54:26;9.00;;;4.75;;
21601;SDS011;10963;50.934;4.668;2022-08-19T10:57:13;7.60;;;4.80;;
21601;SDS011;10963;50.934;4.668;2022-08-19T10:59:42;8.25;;;4.93;;
21601;SDS011;10963;50.934;4.668;2022-08-19T11:02:12;6.72;;;5.10;;
21601;SDS011;10963;50.934;4.668;2022-08-19T11:04:40;13.82;;;5.70;;
21601;SDS011;10963;50.934;4.668;2022-08-19T11:07:08;9.02;;;4.95;;
21601;SDS011;10963;50.934;4.668;2022-08-19T11:09:40;9.55;;;4.88;;
21601;SDS011;10963;50.934;4.668;2022-08-19T11:12:06;7.93;;;4.50;;
21601;SDS011;10963;50.934;4.668;2022-08-19T11:14:36;8.48;;;4.20;;
21601;SDS011;10963;50.934;4.668;2022-08-19T11:17:03;5.55;;;3.95;;
21601;SDS011;10963;50.934;4.668;2022-08-19T11:19:32;6.88;;;3.65;;
21601;SDS011;10963;50.934;4.668;2022-08-19T11:22:01;5.40;;;3.42;;
21601;SDS011;10963;50.934;4.668;2022-08-19T11:24:31;5.07;;;3.67;;
21601;SDS011;10963;50.934;4.668;2022-08-19T11:27:00;8.98;;;3.60;;
21601;SDS011;10963;50.934;4.668;2022-08-19T11:29:31;4.68;;;3.30;;
21601;SDS011;10963;50.934;4.668;2022-08-19T11:31:59;3.88;;;3.45;;
21601;SDS011;10963;50.934;4.668;2022-08-19T11:34:28;6.32;;;3.03;;
21601;SDS011;10963;50.934;4.668;2022-08-19T11:36:56;3.90;;;3.33;;
21601;SDS011;10963;50.934;4.668;2022-08-19T11:39:26;4.78;;;2.95;;
21601;SDS011;10963;50.934;4.668;2022-08-19T11:41:54;4.65;;;3.30;;
21601;SDS011;10963;50.934;4.668;2022-08-19T11:44:23;6.20;;;3.38;;
21601;SDS011;10963;50.934;4.668;2022-08-19T11:46:48;4.18;;;3.63;;
21601;SDS011;10963;50.934;4.668;2022-08-19T11:49:15;5.28;;;3.70;;
21601;SDS011;10963;50.934;4.668;2022-08-19T11:51:46;8.13;;;5.00;;
21601;SDS011;10963;50.934;4.668;2022-08-19T11:54:18;10.10;;;4.60;;
21601;SDS011;10963;50.934;4.668;2022-08-19T11:56:46;6.20;;;4.47;;
21601;SDS011;10963;50.934;4.668;2022-08-19T11:59:16;5.00;;;4.10;;
21601;SDS011;10963;50.934;4.668;2022-08-19T12:01:45;5.32;;;3.90;;
21601;SDS011;10963;50.934;4.668;2022-08-19T12:04:16;9.48;;;4.60;;
21601;SDS011;10963;50.934;4.668;2022-08-19T12:06:42;4.82;;;3.40;;
21601;SDS011;10963;50.934;4.668;2022-08-19T12:09:08;5.45;;;3.78;;
21601;SDS011;10963;50.934;4.668;2022-08-19T12:11:39;6.68;;;4.00;;
21601;SDS011;10963;50.934;4.668;2022-08-19T12:14:05;5.13;;;3.63;;
21601;SDS011;10963;50.934;4.668;2022-08-19T12:16:33;5.78;;;3.85;;
21601;SDS011;10963;50.934;4.668;2022-08-19T12:18:59;3.72;;;3.30;;
21601;SDS011;10963;50.934;4.668;2022-08-19T12:21:29;4.63;;;3.00;;
21601;SDS011;10963;50.934;4.668;2022-08-19T12:23:59;4.32;;;3.47;;
21601;SDS011;10963;50.934;4.668;2022-08-19T12:26:27;4.60;;;3.88;;
21601;SDS011;10963;50.934;4.668;2022-08-19T12:28:54;6.03;;;3.33;;
21601;SDS011;10963;50.934;4.668;2022-08-19T12:31:24;5.53;;;3.63;;
21601;SDS011;10963;50.934;4.668;2022-08-19T12:33:50;7.05;;;3.88;;
21601;SDS011;10963;50.934;4.668;2022-08-19T12:36:18;5.25;;;3.92;;
21601;SDS011;10963;50.934;4.668;2022-08-19T12:38:47;7.07;;;4.30;;
21601;SDS011;10963;50.934;4.668;2022-08-19T12:41:15;6.82;;;5.78;;
21601;SDS011;10963;50.934;4.668;2022-08-19T12:43:46;8.20;;;5.00;;
21601;SDS011;10963;50.934;4.668;2022-08-19T12:46:13;8.23;;;5.72;;
21601;SDS011;10963;50.934;4.668;2022-08-19T12:48:39;7.93;;;5.45;;
21601;SDS011;10963;50.934;4.668;2022-08-19T12:51:12;37.00;;;6.75;;
21601;SDS011;10963;50.934;4.668;2022-08-19T12:53:44;10.55;;;5.53;;
21601;SDS011;10963;50.934;4.668;2022-08-19T12:56:13;6.70;;;5.32;;
21601;SDS011;10963;50.934;4.668;2022-08-19T12:58:40;8.18;;;5.25;;
21601;SDS011;10963;50.934;4.668;2022-08-19T13:01:11;7.65;;;5.90;;
21601;SDS011;10963;50.934;4.668;2022-08-19T13:03:42;7.40;;;5.47;;
21601;SDS011;10963;50.934;4.668;2022-08-19T13:06:12;7.05;;;5.97;;
21601;SDS011;10963;50.934;4.668;2022-08-19T13:08:40;7.20;;;5.60;;
21601;SDS011;10963;50.934;4.668;2022-08-19T13:11:11;6.97;;;6.28;;
21601;SDS011;10963;50.934;4.668;2022-08-19T13:13:45;8.73;;;6.38;;
21601;SDS011;10963;50.934;4.668;2022-08-19T13:16:13;7.55;;;5.68;;
21601;SDS011;10963;50.934;4.668;2022-08-19T13:18:42;7.05;;;5.50;;
21601;SDS011;10963;50.934;4.668;2022-08-19T13:21:10;7.63;;;5.63;;
21601;SDS011;10963;50.934;4.668;2022-08-19T13:23:37;6.88;;;5.55;;
21601;SDS011;10963;50.934;4.668;2022-08-19T13:26:05;7.68;;;4.90;;
21601;SDS011;10963;50.934;4.668;2022-08-19T13:28:32;6.30;;;5.00;;
21601;SDS011;10963;50.934;4.668;2022-08-19T13:31:18;6.30;;;4.43;;
21601;SDS011;10963;50.934;4.668;2022-08-19T13:34:06;4.90;;;4.35;;
21601;SDS011;10963;50.934;4.668;2022-08-19T13:36:32;4.60;;;4.18;;
21601;SDS011;10963;50.934;4.668;2022-08-19T13:39:01;23.63;;;5.20;;
21601;SDS011;10963;50.934;4.668;2022-08-19T13:41:32;6.25;;;4.40;;
21601;SDS011;10963;50.934;4.668;2022-08-19T13:43:58;6.72;;;4.70;;
21601;SDS011;10963;50.934;4.668;2022-08-19T13:46:27;4.93;;;4.05;;
21601;SDS011;10963;50.934;4.668;2022-08-19T13:48:54;6.70;;;3.50;;
21601;SDS011;10963;50.934;4.668;2022-08-19T13:51:23;5.40;;;3.90;;
21601;SDS011;10963;50.934;4.668;2022-08-19T13:53:51;3.50;;;3.20;;
21601;SDS011;10963;50.934;4.668;2022-08-19T13:56:20;4.05;;;3.65;;
21601;SDS011;10963;50.934;4.668;2022-08-19T13:58:46;5.90;;;3.65;;
21601;SDS011;10963;50.934;4.668;2022-08-19T14:01:20;7.55;;;3.30;;
21601;SDS011;10963;50.934;4.668;2022-08-19T14:03:49;6.15;;;3.15;;
21601;SDS011;10963;50.934;4.668;2022-08-19T14:06:15;4.18;;;2.70;;
21601;SDS011;10963;50.934;4.668;2022-08-19T14:08:46;4.35;;;3.00;;
21601;SDS011;10963;50.934;4.668;2022-08-19T14:11:12;4.65;;;2.85;;
21601;SDS011;10963;50.934;4.668;2022-08-19T14:13:44;5.18;;;3.38;;
21601;SDS011;10963;50.934;4.668;2022-08-19T14:16:13;2.78;;;2.53;;
21601;SDS011;10963;50.934;4.668;2022-08-19T14:18:42;2.72;;;2.42;;
21601;SDS011;10963;50.934;4.668;2022-08-19T14:21:11;10.82;;;3.10;;
21601;SDS011;10963;50.934;4.668;2022-08-19T14:23:45;8.05;;;3.08;;
21601;SDS011;10963;50.934;4.668;2022-08-19T14:26:16;3.38;;;2.33;;
21601;SDS011;10963;50.934;4.668;2022-08-19T14:28:46;2.55;;;2.35;;
21601;SDS011;10963;50.934;4.668;2022-08-19T14:31:14;3.60;;;2.40;;
21601;SDS011;10963;50.934;4.668;2022-08-19T14:33:46;2.72;;;2.10;;
21601;SDS011;10963;50.934;4.668;2022-08-19T14:36:12;1.77;;;1.67;;
21601;SDS011;10963;50.934;4.668;2022-08-19T14:38:38;2.65;;;2.05;;
21601;SDS011;10963;50.934;4.668;2022-08-19T14:41:08;4.68;;;2.05;;
21601;SDS011;10963;50.934;4.668;2022-08-19T14:43:35;3.13;;;1.80;;
21601;SDS011;10963;50.934;4.668;2022-08-19T14:46:04;5.38;;;2.20;;
21601;SDS011;10963;50.934;4.668;2022-08-19T14:48:30;2.55;;;2.00;;
21601;SDS011;10963;50.934;4.668;2022-08-19T14:50:58;2.08;;;1.85;;
21601;SDS011;10963;50.934;4.668;2022-08-19T14:53:24;7.32;;;3.00;;
21601;SDS011;10963;50.934;4.668;2022-08-19T14:55:52;10.05;;;2.35;;
21601;SDS011;10963;50.934;4.668;2022-08-19T14:58:20;5.32;;;2.50;;
21601;SDS011;10963;50.934;4.668;2022-08-19T15:00:48;6.00;;;2.50;;
21601;SDS011;10963;50.934;4.668;2022-08-19T15:03:14;2.72;;;2.00;;
21601;SDS011;10963;50.934;4.668;2022-08-19T15:05:39;2.92;;;2.08;;